Time;durP1;ratioP1;P1;durP2;ratioP2;P2;SDS_P1;SDS_P2;PMS_P1;PMS_P2;Temp;Humidity;BMP_temperature;BMP_pressure;BME280_temperature;BME280_humidity;BME280_pressure;Samples;Min_cycle;Max_cycle;Signal;HPM_P1;HPM_P2
2020/12/02 00:00:11;;;;;;;118.30;52.33;;;;;;;-2.39;85.47;99655.75;1618217;89;21121;-66
2020/12/02 00:02:53;;;;;;;122.42;52.75;;;;;;;-2.35;85.28;99658.21;1618301;89;21152;-68
2020/12/02 00:09:14;;;;;;;92.87;40.13;;;;;;;-2.23;84.82;99660.30;1618031;89;21688;-67
2020/12/02 00:11:41;;;;;;;118.73;51.17;;;;;;;-2.25;84.42;99659.74;1592167;89;21097;-68
2020/12/02 00:14:11;;;;;;;102.13;42.47;;;;;;;-2.33;84.32;99662.78;1618169;89;21586;-67
2020/12/02 00:16:38;;;;;;;125.20;54.20;;;;;;;-2.32;84.44;99663.05;1618079;89;21137;-67
2020/12/02 00:19:05;;;;;;;116.53;51.90;;;;;;;-2.34;84.79;99662.48;1618142;89;21177;-67
2020/12/02 00:21:33;;;;;;;117.97;53.80;;;;;;;-2.30;84.92;99663.63;1618037;89;21298;-69
2020/12/02 00:24:00;;;;;;;109.97;50.47;;;;;;;-2.27;84.81;99666.61;1618146;89;21296;-68
2020/12/02 00:26:28;;;;;;;112.33;50.73;;;;;;;-2.19;84.78;99666.23;1618013;88;21130;-68
2020/12/02 00:28:56;;;;;;;115.23;49.83;;;;;;;-2.21;84.68;99666.97;1617982;89;21154;-64
2020/12/02 00:31:23;;;;;;;121.37;52.83;;;;;;;-2.15;84.44;99662.56;1618077;88;21168;-64
2020/12/02 00:33:50;;;;;;;124.40;54.47;;;;;;;-2.20;84.71;99665.13;1618937;88;21147;-66
2020/12/02 00:39:59;;;;;;;117.27;49.70;;;;;;;-2.08;84.22;99661.37;1618634;89;21109;-65
2020/12/02 00:42:26;;;;;;;86.37;37.63;;;;;;;-2.03;83.79;99672.09;1618477;88;21163;-66
2020/12/02 00:44:53;;;;;;;108.43;48.70;;;;;;;-2.09;83.72;99675.69;1618488;89;21133;-67
2020/12/02 00:47:22;;;;;;;112.17;50.23;;;;;;;-2.13;83.57;99668.44;1618460;89;21109;-67
2020/12/02 00:49:52;;;;;;;110.27;49.40;;;;;;;-2.16;83.59;99663.09;1618508;89;21122;-64
2020/12/02 00:52:19;;;;;;;119.40;52.23;;;;;;;-2.15;83.49;99670.53;1618470;89;21155;-66
2020/12/02 00:54:46;;;;;;;120.60;53.30;;;;;;;-2.14;83.41;99676.95;1618552;89;21165;-65
2020/12/02 00:57:22;;;;;;;109.17;48.37;;;;;;;-2.10;83.32;99674.63;1618449;88;21557;-67
2020/12/02 00:59:52;;;;;;;125.07;53.00;;;;;;;-2.10;83.50;99666.65;1617715;89;21214;-66
2020/12/02 01:02:40;;;;;;;109.97;49.03;;;;;;;-2.17;83.88;99668.63;1617519;89;21608;-65
2020/12/02 01:05:09;;;;;;;115.93;53.03;;;;;;;-2.15;83.61;99671.34;1617835;89;21578;-64
2020/12/02 01:07:41;;;;;;;120.97;53.20;;;;;;;-2.10;83.50;99669.30;1618047;89;21578;-67
2020/12/02 01:10:09;;;;;;;;;;;;;;;-2.01;83.42;99661.20;1620463;89;21513;-66
2020/12/02 01:12:37;;;;;;;110.37;46.57;;;;;;;-2.13;83.63;99671.09;1618337;88;20186;-65
2020/12/02 01:15:07;;;;;;;110.70;51.73;;;;;;;-2.16;84.12;99667.59;1618696;89;21541;-65
2020/12/02 01:17:34;;;;;;;115.87;48.07;;;;;;;-2.12;84.05;99666.06;1617981;89;21184;-65
2020/12/02 01:20:00;;;;;;;108.50;47.60;;;;;;;-2.04;83.82;99667.81;1618929;88;21259;-66
2020/12/02 01:22:32;;;;;;;108.37;51.60;;;;;;;-2.00;83.62;99664.15;1618391;88;21591;-68
2020/12/02 01:25:22;;;;;;;111.65;48.28;;;;;;;-1.99;83.68;99664.45;1618512;89;21526;-66
2020/12/02 01:27:59;;;;;;;104.63;49.23;;;;;;;-1.91;83.49;99665.34;1618598;88;21126;-66
2020/12/02 01:30:26;;;;;;;117.83;52.63;;;;;;;-1.97;83.43;99663.66;1617895;89;21134;-67
2020/12/02 01:32:53;;;;;;;119.30;51.27;;;;;;;-1.89;83.23;99667.78;1619944;88;21161;-66
2020/12/02 01:35:24;;;;;;;109.73;50.20;;;;;;;-1.81;82.97;99663.39;1620870;88;21282;-68
2020/12/02 01:37:58;;;;;;;104.23;47.47;;;;;;;-1.88;83.15;99668.07;1621141;88;21121;-66
2020/12/02 01:40:28;;;;;;;108.53;48.53;;;;;;;-1.87;83.07;99668.33;1620952;88;21617;-65
2020/12/02 01:43:04;;;;;;;107.33;46.73;;;;;;;-1.89;83.09;99666.45;1620717;88;21279;-67
2020/12/02 01:45:35;;;;;;;124.73;54.13;;;;;;;-1.97;83.08;99670.31;1621537;88;21122;-66
2020/12/02 01:48:37;;;;;;;104.57;46.67;;;;;;;-1.99;83.41;99667.10;1621423;88;21155;-67
2020/12/02 01:51:36;;;;;;;120.07;50.07;;;;;;;-2.00;83.26;99669.47;1620919;88;21506;-65
2020/12/02 01:54:11;;;;;;;117.07;51.40;;;;;;;-2.05;83.09;99670.70;1621203;88;21129;-65
2020/12/02 01:57:08;;;;;;;120.10;48.93;;;;;;;-2.04;83.07;99667.00;1620700;88;21239;-64
2020/12/02 01:59:58;;;;;;;119.93;51.33;;;;;;;-1.98;82.77;99672.67;1621311;88;21152;-67
2020/12/02 02:02:52;;;;;;;115.47;49.03;;;;;;;-1.94;82.48;99667.16;1613341;88;21297;-67
2020/12/02 02:09:00;;;;;;;97.87;40.83;;;;;;;-1.84;82.23;99675.84;1620956;88;21146;-66
2020/12/02 02:11:27;;;;;;;112.87;49.50;;;;;;;-2.08;82.61;99676.50;1597156;88;21169;-68
2020/12/02 02:14:31;;;;;;;108.33;49.77;;;;;;;-2.20;83.04;99667.27;1620950;88;21124;-67
2020/12/02 02:16:57;;;;;;;105.33;47.40;;;;;;;-2.13;83.03;99670.58;1619824;88;21627;-65
2020/12/02 02:23:56;;;;;;;115.77;47.57;;;;;;;-1.89;82.91;99669.11;1620932;88;21117;-67
2020/12/02 02:26:39;;;;;;;79.57;32.70;;;;;;;-2.11;83.12;99673.00;1621331;88;21159;-66
2020/12/02 02:29:10;;;;;;;101.42;42.08;;;;;;;-2.14;82.99;99672.97;1620980;88;21282;-65
2020/12/02 02:31:46;;;;;;;;;;;;;;;-2.32;83.22;99671.02;1623512;88;21185;-64
2020/12/02 02:34:14;;;;;;;109.80;47.80;;;;;;;-2.53;83.94;99671.98;1618510;88;20253;-65
2020/12/02 02:40:23;;;;;;;82.77;35.43;;;;;;;-2.57;84.58;99672.69;1618691;89;21106;-67
2020/12/02 02:42:50;;;;;;;89.30;38.40;;;;;;;-2.49;84.23;99682.42;1618660;89;21151;-68
2020/12/02 02:45:24;;;;;;;110.40;46.63;;;;;;;-2.56;84.56;99676.45;1618601;88;21149;-65
2020/12/02 02:47:56;;;;;;;107.37;46.23;;;;;;;-2.61;84.71;99672.36;1618477;89;21170;-68
2020/12/02 02:50:24;;;;;;;98.60;45.55;;;;;;;-2.48;84.68;99677.92;1617849;89;21165;-64
2020/12/02 02:52:52;;;;;;;94.77;43.23;;;;;;;-2.40;84.29;99677.55;1618382;88;21475;-65
2020/12/02 02:55:23;;;;;;;97.97;44.07;;;;;;;-2.32;83.87;99687.77;1618491;88;21133;-67
2020/12/02 02:57:50;;;;;;;96.37;42.58;;;;;;;-2.35;84.03;99680.28;1618765;88;21118;-66
2020/12/02 03:00:25;;;;;;;99.07;42.60;;;;;;;-2.33;83.74;99684.03;1618552;89;21137;-64
2020/12/02 03:02:52;;;;;;;93.10;41.50;;;;;;;-2.29;83.49;99682.00;1618770;88;21161;-65
2020/12/02 03:05:19;;;;;;;102.60;44.07;;;;;;;-2.27;83.34;99680.41;1618435;89;21110;-64
2020/12/02 03:07:51;;;;;;;98.07;41.70;;;;;;;-2.28;83.36;99674.81;1618812;89;21523;-65
2020/12/02 03:10:18;;;;;;;83.15;36.05;;;;;;;-2.26;83.33;99680.70;1619129;89;21163;-63
2020/12/02 03:12:45;;;;;;;102.30;44.67;;;;;;;-2.25;83.06;99678.34;1618579;89;21582;-65
2020/12/02 03:15:12;;;;;;;83.80;34.63;;;;;;;-2.29;82.95;99678.53;1618605;89;21549;-65
2020/12/02 03:17:39;;;;;;;99.97;41.87;;;;;;;-2.31;82.89;99679.28;1618636;89;21179;-65
2020/12/02 03:20:23;;;;;;;93.37;42.77;;;;;;;-2.47;83.27;99679.52;1594360;89;21310;-66
2020/12/02 03:22:50;;;;;;;94.20;39.73;;;;;;;-2.42;83.26;99683.60;1618673;89;21134;-65
2020/12/02 03:25:22;;;;;;;68.77;30.70;;;;;;;-2.53;83.64;99677.81;1618681;88;21569;-66
2020/12/02 03:27:49;;;;;;;97.67;42.77;;;;;;;-2.55;83.51;99675.94;1618590;88;21102;-65
2020/12/02 03:30:17;;;;;;;99.03;43.73;;;;;;;-2.57;83.79;99678.00;1618528;89;21105;-64
2020/12/02 03:32:44;;;;;;;94.87;40.67;;;;;;;-2.57;83.66;99676.67;1618853;88;21172;-64
2020/12/02 03:35:11;;;;;;;86.80;39.03;;;;;;;-2.61;84.02;99676.34;1618628;89;21181;-66
2020/12/02 03:37:38;;;;;;;98.73;40.27;;;;;;;-2.53;83.74;99674.64;1618481;89;21172;-66
2020/12/02 03:40:05;;;;;;;94.93;41.33;;;;;;;-2.46;83.55;99680.62;1618765;88;21143;-65
2020/12/02 03:42:32;;;;;;;64.03;25.00;;;;;;;-2.37;83.42;99685.03;1618427;89;21177;-67
2020/12/02 03:44:59;;;;;;;91.17;40.57;;;;;;;-2.36;83.74;99675.22;1618522;89;21179;-67
2020/12/02 03:47:27;;;;;;;96.97;40.93;;;;;;;-2.26;83.23;99682.03;1618480;88;21137;-67
2020/12/02 03:49:54;;;;;;;97.63;42.37;;;;;;;-2.21;82.91;99680.26;1618503;88;21160;-66
2020/12/02 03:52:20;;;;;;;110.33;45.50;;;;;;;-2.30;82.92;99678.24;1618303;88;21574;-67
2020/12/02 03:54:47;;;;;;;102.57;44.17;;;;;;;-2.23;82.69;99686.86;1618767;89;21161;-66
2020/12/02 03:57:14;;;;;;;100.30;43.87;;;;;;;-2.28;82.59;99695.55;1618515;88;21129;-68
2020/12/02 03:59:41;;;;;;;88.23;39.97;;;;;;;-2.33;82.58;99690.16;1618538;88;21161;-67
2020/12/02 04:02:08;;;;;;;91.17;40.27;;;;;;;-2.34;82.69;99692.52;1618598;89;21588;-65
2020/12/02 04:04:35;;;;;;;89.07;40.53;;;;;;;-2.35;82.67;99700.20;1618724;88;21125;-67
2020/12/02 04:07:02;;;;;;;102.50;40.83;;;;;;;-2.38;82.53;99694.56;1618303;89;21169;-65
2020/12/02 04:09:29;;;;;;;99.20;42.33;;;;;;;-2.38;82.43;99692.72;1618534;88;21175;-64
2020/12/02 04:11:56;;;;;;;86.80;38.43;;;;;;;-2.38;82.30;99698.55;1618446;88;21134;-68
2020/12/02 04:14:23;;;;;;;91.13;42.53;;;;;;;-2.38;82.32;99698.55;1618863;88;21175;-67
2020/12/02 04:16:50;;;;;;;94.43;42.30;;;;;;;-2.32;82.06;99697.58;1618652;89;21588;-68
2020/12/02 04:19:17;;;;;;;83.63;37.20;;;;;;;-2.36;81.96;99695.14;1618446;89;21545;-66
2020/12/02 04:21:48;;;;;;;85.23;38.63;;;;;;;-2.38;82.02;99697.22;1618464;89;21542;-65
2020/12/02 04:24:14;;;;;;;82.90;34.07;;;;;;;-2.41;82.18;99695.85;1618296;88;21179;-64
2020/12/02 04:26:41;;;;;;;82.17;35.80;;;;;;;-2.35;82.09;99693.56;1618451;89;21149;-66
2020/12/02 04:29:08;;;;;;;83.07;37.17;;;;;;;-2.33;81.98;99698.13;1594267;89;21163;-63
2020/12/02 04:31:35;;;;;;;82.27;36.60;;;;;;;-2.37;82.08;99703.63;1618518;89;21534;-63
2020/12/02 04:34:02;;;;;;;64.53;27.63;;;;;;;-2.40;82.16;99708.61;1618141;86;21196;-65
2020/12/02 04:37:09;;;;;;;82.43;36.13;;;;;;;-2.46;82.21;99702.39;1617800;89;21279;-65
2020/12/02 04:39:36;;;;;;;80.27;35.63;;;;;;;-2.61;82.61;99703.42;1618322;89;21537;-64
2020/12/02 04:42:04;;;;;;;89.33;37.83;;;;;;;-2.60;82.30;99711.16;1617988;89;21179;-68
2020/12/02 04:44:31;;;;;;;80.00;33.57;;;;;;;-2.65;82.49;99708.91;1592345;89;21153;-64
2020/12/02 04:46:58;;;;;;;72.97;30.80;;;;;;;-2.59;82.40;99711.45;1618183;89;21121;-66
2020/12/02 04:49:32;;;;;;;71.20;31.00;;;;;;;-2.54;82.42;99716.03;1617810;89;21275;-66
2020/12/02 04:52:03;;;;;;;70.03;31.03;;;;;;;-2.57;82.35;99701.39;1618288;89;21173;-64
2020/12/02 04:54:30;;;;;;;79.03;34.30;;;;;;;-2.52;82.33;99702.02;1618047;89;21125;-66
2020/12/02 04:56:57;;;;;;;72.13;32.73;;;;;;;-2.48;82.44;99703.97;1618050;89;21139;-64
2020/12/02 04:59:42;;;;;;;57.80;20.87;;;;;;;-2.45;82.46;99706.66;1618242;89;21576;-63
2020/12/02 05:02:26;;;;;;;69.00;29.00;;;;;;;-2.71;82.89;99710.67;1617982;89;21565;-67
2020/12/02 05:04:57;;;;;;;80.80;34.33;;;;;;;-2.70;82.99;99712.27;1617660;89;21172;-63
2020/12/02 05:07:28;;;;;;;81.27;36.00;;;;;;;-2.66;83.15;99708.10;1616947;89;21153;-67
2020/12/02 05:10:02;;;;;;;76.20;33.80;;;;;;;-2.59;82.98;99714.62;1617794;89;21226;-68
2020/12/02 05:12:32;;;;;;;62.17;28.43;;;;;;;-2.56;82.87;99709.65;1617994;89;21167;-68
2020/12/02 05:15:29;;;;;;;66.67;29.03;;;;;;;-2.62;82.94;99710.58;1618049;89;21181;-65
2020/12/02 05:18:16;;;;;;;77.20;33.47;;;;;;;-2.72;83.08;99708.24;1617967;89;21319;-65
2020/12/02 05:24:25;;;;;;;63.83;26.10;;;;;;;-2.65;83.06;99711.05;1617910;89;21122;-62
2020/12/02 05:26:52;;;;;;;79.73;32.70;;;;;;;-2.64;82.85;99717.98;1618023;89;21153;-67
2020/12/02 05:29:39;;;;;;;70.03;31.93;;;;;;;-2.66;82.70;99717.39;1592322;89;21136;-64
2020/12/02 05:32:14;;;;;;;70.77;29.63;;;;;;;-2.71;82.37;99715.17;1617309;89;21267;-66
2020/12/02 05:34:40;;;;;;;85.07;36.67;;;;;;;-2.75;82.56;99714.03;1618738;88;21307;-66
2020/12/02 05:40:50;;;;;;;75.43;30.77;;;;;;;-2.74;82.16;99712.48;1621072;88;21117;-64
2020/12/02 05:43:45;;;;;;;81.60;32.07;;;;;;;-2.77;82.27;99702.30;1596946;88;21283;-64
2020/12/02 05:46:17;;;;;;;77.40;32.97;;;;;;;-2.76;82.14;99709.23;1615098;88;21494;-67
2020/12/02 05:48:44;;;;;;;85.20;38.37;;;;;;;-2.70;82.09;99707.50;1610627;88;21141;-65
2020/12/02 05:51:19;;;;;;;90.00;36.60;;;;;;;-2.72;82.19;99714.36;1597517;88;21171;-65
2020/12/02 05:53:54;;;;;;;85.33;35.27;;;;;;;-2.63;82.03;99716.95;1620669;88;21436;-65
2020/12/02 05:56:21;;;;;;;53.37;22.77;;;;;;;-2.60;81.90;99720.45;1621238;88;21549;-68
2020/12/02 05:58:47;;;;;;;64.27;28.20;;;;;;;-2.67;81.64;99716.32;1620926;88;21522;-69
2020/12/02 06:01:20;;;;;;;65.00;27.50;;;;;;;-2.65;81.74;99724.33;1621040;88;21620;-67
2020/12/02 06:03:54;;;;;;;63.57;28.77;;;;;;;-2.66;81.69;99716.06;1597653;88;21583;-69
2020/12/02 06:06:21;;;;;;;70.30;30.80;;;;;;;-2.69;81.59;99720.52;1619913;88;21189;-69
2020/12/02 06:08:50;;;;;;;69.33;29.10;;;;;;;-2.69;81.70;99724.51;1620966;88;21568;-68
2020/12/02 06:11:22;;;;;;;69.00;28.93;;;;;;;-2.62;81.59;99717.73;1620866;88;21266;-68
2020/12/02 06:13:55;;;;;;;;;;;;;;;-2.69;81.67;99727.16;1623285;88;21168;-68
2020/12/02 06:16:33;;;;;;;64.85;27.42;;;;;;;-2.73;81.36;99724.69;1621027;88;20201;-67
2020/12/02 06:19:24;;;;;;;59.83;26.40;;;;;;;-2.71;81.01;99722.62;1620888;88;21906;-68
2020/12/02 06:21:54;;;;;;;59.57;25.97;;;;;;;-2.72;80.93;99725.50;1621177;88;21169;-66
2020/12/02 06:24:47;;;;;;;63.90;27.60;;;;;;;-2.69;80.75;99727.16;1620673;88;21153;-69
2020/12/02 06:27:31;;;;;;;65.67;26.60;;;;;;;-2.67;80.42;99730.41;1620554;88;21157;-69
2020/12/02 06:30:12;;;;;;;66.00;27.00;;;;;;;-2.67;80.23;99730.92;1619744;88;21149;-67
2020/12/02 06:32:39;;;;;;;68.17;28.07;;;;;;;-2.67;80.13;99729.08;1620770;88;21553;-66
2020/12/02 06:35:16;;;;;;;62.00;30.53;;;;;;;-2.85;80.40;99724.45;1618523;88;21166;-67
2020/12/02 06:37:43;;;;;;;66.60;29.00;;;;;;;-2.89;80.86;99721.97;1618333;89;21245;-68
2020/12/02 06:40:13;;;;;;;53.13;21.73;;;;;;;-2.82;80.83;99727.95;1618559;89;21179;-66
2020/12/02 06:42:41;;;;;;;63.27;29.03;;;;;;;-2.75;80.92;99722.80;1618463;89;21117;-67
2020/12/02 06:45:37;;;;;;;63.87;30.03;;;;;;;-2.81;80.44;99722.94;1618536;89;21141;-67
2020/12/02 06:48:15;;;;;;;58.63;24.30;;;;;;;-2.81;80.82;99729.58;1618402;88;21141;-66
2020/12/02 06:54:27;;;;;;;58.00;25.63;;;;;;;-2.77;80.62;99725.39;1618382;89;21113;-66
2020/12/02 06:56:59;;;;;;;62.77;26.93;;;;;;;-2.65;80.24;99736.27;1618377;88;21163;-67
2020/12/02 06:59:26;;;;;;;;;;;;;;;-2.68;80.01;99738.08;1620449;89;21113;-67
2020/12/02 07:01:53;;;;;;;53.00;22.47;;;;;;;-2.63;79.62;99737.38;1618487;88;20154;-68
2020/12/02 07:04:22;;;;;;;60.47;28.30;;;;;;;-2.75;79.58;99732.61;1573737;89;21215;-68
2020/12/02 07:10:31;;;;;;;63.63;27.33;;;;;;;-2.81;79.55;99734.89;1618363;89;21577;-67
2020/12/02 07:12:58;;;;;;;58.27;25.53;;;;;;;-2.83;79.43;99731.12;1618736;89;21137;-65
2020/12/02 07:15:25;;;;;;;51.57;22.97;;;;;;;-2.66;79.42;99737.31;1618682;89;21475;-65
2020/12/02 07:17:51;;;;;;;58.87;27.90;;;;;;;-2.63;79.34;99735.53;1618955;88;21191;-67
2020/12/02 07:20:19;;;;;;;65.27;27.03;;;;;;;-2.57;78.90;99737.24;1594669;89;21131;-66
2020/12/02 07:26:28;;;;;;;58.30;25.03;;;;;;;-2.69;79.03;99729.01;1618470;89;21341;-69
2020/12/02 07:29:06;;;;;;;54.53;26.40;;;;;;;-2.58;78.66;99739.60;1618426;89;21564;-66
2020/12/02 07:31:33;;;;;;;62.13;27.60;;;;;;;-2.53;78.68;99740.23;1617334;89;21130;-67
2020/12/02 07:34:15;;;;;;;63.83;25.30;;;;;;;-2.55;78.58;99737.02;1618684;88;21526;-63
2020/12/02 07:36:42;;;;;;;56.67;25.57;;;;;;;-2.56;78.48;99737.53;1616648;89;21589;-66
2020/12/02 07:39:16;;;;;;;62.80;26.93;;;;;;;-2.63;78.74;99735.53;1617975;89;21884;-65
2020/12/02 07:42:08;;;;;;;41.93;16.50;;;;;;;-2.50;78.32;99737.91;1617932;89;21129;-62
2020/12/02 07:44:46;;;;;;;54.58;24.55;;;;;;;-2.70;79.15;99733.50;1617893;89;21151;-65
2020/12/02 07:47:13;;;;;;;50.67;20.37;;;;;;;-2.75;80.43;99729.44;1617279;89;21176;-67
2020/12/02 07:49:44;;;;;;;46.13;19.83;;;;;;;-2.71;80.97;99727.94;1618742;89;21145;-66
2020/12/02 07:52:22;;;;;;;51.70;23.60;;;;;;;-2.60;81.30;99723.11;1615300;89;21272;-66
2020/12/02 07:54:56;;;;;;;61.20;25.20;;;;;;;-2.57;81.36;99727.95;1618012;89;21121;-65
2020/12/02 07:57:26;;;;;;;52.20;22.83;;;;;;;-2.50;81.40;99726.47;1618135;89;21137;-67
2020/12/02 08:00:18;;;;;;;48.03;21.30;;;;;;;-2.37;81.28;99723.55;1592449;89;21588;-65
2020/12/02 08:02:46;;;;;;;51.80;22.95;;;;;;;-2.43;81.16;99716.52;1618200;89;21173;-65
2020/12/02 08:05:41;;;;;;;54.93;24.93;;;;;;;-2.38;81.00;99718.47;1617844;89;21585;-67
2020/12/02 08:08:08;;;;;;;54.50;25.40;;;;;;;-2.15;81.10;99714.39;1617742;89;21174;-67
2020/12/02 08:10:36;;;;;;;54.63;25.03;;;;;;;-2.03;80.98;99721.27;1617862;89;21110;-66
2020/12/02 08:13:14;;;;;;;59.53;26.17;;;;;;;-1.90;80.57;99721.47;1617752;89;21153;-67
2020/12/02 08:15:51;;;;;;;56.93;26.07;;;;;;;-1.92;80.76;99721.44;1617762;89;21219;-66
2020/12/02 08:18:22;;;;;;;54.30;24.00;;;;;;;-1.86;80.41;99720.47;1617755;89;21267;-68
2020/12/02 08:24:41;;;;;;;55.70;25.00;;;;;;;-1.83;80.23;99722.12;1617717;89;21751;-67
2020/12/02 08:27:10;;;;;;;58.07;28.07;;;;;;;-1.86;79.80;99721.27;1617892;89;21603;-66
2020/12/02 08:29:37;;;;;;;48.87;21.63;;;;;;;-2.01;79.90;99719.68;1617864;89;21167;-66
2020/12/02 08:32:10;;;;;;;52.07;23.97;;;;;;;-1.74;79.82;99721.20;1617918;89;21602;-67
2020/12/02 08:34:37;;;;;;;61.50;28.23;;;;;;;-1.65;79.63;99715.78;1614093;88;21169;-66
2020/12/02 08:40:50;;;;;;;49.83;23.43;;;;;;;-1.75;79.31;99715.08;1618369;89;21185;-68
2020/12/02 08:43:28;;;;;;;55.30;24.43;;;;;;;-1.39;79.06;99718.31;1618390;89;21197;-67
2020/12/02 08:46:20;;;;;;;55.03;24.87;;;;;;;-1.31;78.86;99708.03;1618380;89;21133;-66
2020/12/02 08:48:51;;;;;;;59.97;26.60;;;;;;;-1.46;78.55;99713.13;1618548;89;21134;-67
2020/12/02 08:51:21;;;;;;;57.33;25.80;;;;;;;-1.49;79.05;99710.44;1618299;89;21636;-67
2020/12/02 08:53:48;;;;;;;55.37;24.47;;;;;;;-1.27;78.80;99712.34;1618215;89;21480;-67
2020/12/02 08:56:22;;;;;;;44.73;20.17;;;;;;;-1.31;78.65;99708.03;1618211;89;21579;-65
2020/12/02 08:58:49;;;;;;;55.47;26.20;;;;;;;-1.38;77.43;99714.05;1617954;89;21258;-65
2020/12/02 09:01:16;;;;;;;60.37;27.77;;;;;;;-1.16;78.67;99710.11;1618346;88;21145;-66
2020/12/02 09:03:43;;;;;;;56.17;25.50;;;;;;;-1.21;78.51;99698.89;1618390;89;21105;-66
2020/12/02 09:09:51;;;;;;;53.17;24.07;;;;;;;-1.39;77.60;99702.34;1618295;89;21176;-66
2020/12/02 09:12:18;;;;;;;46.27;19.10;;;;;;;-1.66;77.33;99695.02;1618478;88;21118;-68
2020/12/02 09:14:46;;;;;;;53.80;24.13;;;;;;;-1.92;76.99;99702.83;1618453;88;21161;-68
2020/12/02 09:17:13;;;;;;;52.47;25.10;;;;;;;-1.70;78.00;99691.75;1618232;89;21152;-68
2020/12/02 09:19:39;;;;;;;59.97;27.23;;;;;;;-1.61;77.80;99691.09;1618500;88;21136;-66
2020/12/02 09:25:48;;;;;;;44.67;20.37;;;;;;;-1.46;77.44;99682.02;1618121;89;21240;-67
2020/12/02 09:28:15;;;;;;;44.50;21.77;;;;;;;-1.61;77.19;99682.30;1618931;88;21106;-69
2020/12/02 09:30:41;;;;;;;56.07;26.00;;;;;;;-1.54;76.78;99676.32;1618410;88;21125;-67
2020/12/02 09:33:09;;;;;;;56.27;28.03;;;;;;;-1.61;76.85;99676.47;1618788;89;21125;-66
2020/12/02 09:35:36;;;;;;;44.90;18.67;;;;;;;-1.51;76.27;99673.98;1618365;88;21169;-68
2020/12/02 09:42:08;;;;;;;54.40;25.17;;;;;;;-1.74;75.81;99670.68;1618637;89;21109;-67
2020/12/02 09:44:46;;;;;;;59.13;25.80;;;;;;;-1.76;75.92;99664.26;1614813;89;21529;-67
2020/12/02 09:47:20;;;;;;;56.53;26.90;;;;;;;-1.77;76.01;99665.85;1618569;89;21171;-68
2020/12/02 09:49:48;;;;;;;58.20;27.03;;;;;;;-1.78;76.30;99667.70;1618384;89;21650;-67
2020/12/02 09:52:41;;;;;;;60.13;27.73;;;;;;;-1.82;76.74;99668.42;1618814;89;21256;-66
2020/12/02 09:55:19;;;;;;;55.60;25.87;;;;;;;-1.76;77.14;99658.16;1618348;89;21557;-66
2020/12/02 09:57:46;;;;;;;59.53;27.00;;;;;;;-1.61;77.39;99654.38;1618423;88;21125;-67
2020/12/02 10:00:14;;;;;;;58.20;26.00;;;;;;;-1.60;77.73;99648.83;1618360;88;21184;-66
2020/12/02 10:03:13;;;;;;;55.80;26.40;;;;;;;-1.51;77.96;99640.73;1618500;89;21130;-67
2020/12/02 10:06:11;;;;;;;54.50;25.63;;;;;;;-1.36;78.13;99637.47;1618353;88;21171;-68
2020/12/02 10:09:01;;;;;;;51.80;24.10;;;;;;;-1.18;78.11;99636.36;1618350;89;21136;-67
2020/12/02 10:11:58;;;;;;;56.13;26.33;;;;;;;-1.08;78.05;99629.30;1618675;88;21117;-67
2020/12/02 10:14:47;;;;;;;55.43;26.30;;;;;;;-1.04;78.20;99625.10;1618465;89;21167;-67
2020/12/02 10:17:39;;;;;;;57.17;25.20;;;;;;;-1.06;78.02;99623.75;1618377;89;21149;-57
2020/12/02 10:20:44;;;;;;;59.33;27.20;;;;;;;-1.06;77.91;99621.89;1618526;89;21184;-61
2020/12/02 10:27:31;;;;;;;49.57;20.87;;;;;;;-0.90;77.34;99626.07;1617945;89;26199;-57
2020/12/02 10:30:12;;;;;;;60.97;29.23;;;;;;;-0.83;77.02;99618.69;1618383;88;21171;-59
2020/12/02 10:33:25;;;;;;;61.80;29.40;;;;;;;-0.81;76.47;99611.24;1618199;89;21179;-59
2020/12/02 10:35:52;;;;;;;54.33;25.55;;;;;;;-1.00;76.04;99612.91;1618300;88;21153;-63
2020/12/02 10:38:36;;;;;;;53.43;24.13;;;;;;;-1.17;76.09;99613.50;1618928;89;21538;-61
2020/12/02 10:41:38;;;;;;;51.63;23.20;;;;;;;-1.28;76.44;99614.95;1618374;88;21142;-64
2020/12/02 10:44:19;;;;;;;51.57;24.83;;;;;;;-1.36;76.31;99609.53;1618649;88;21542;-64
2020/12/02 10:47:42;;;;;;;40.30;19.90;;;;;;;-1.22;77.52;99605.45;1618345;89;21149;-63
2020/12/02 10:50:09;;;;;;;45.30;20.88;;;;;;;-1.20;78.12;99611.31;1618594;89;21133;-66
2020/12/02 10:56:19;;;;;;;52.60;24.77;;;;;;;-1.19;77.62;99604.95;1618299;89;21110;-65
2020/12/02 10:58:46;;;;;;;54.60;24.63;;;;;;;-1.33;77.35;99612.21;1618414;89;21152;-66
2020/12/02 11:01:13;;;;;;;53.80;25.73;;;;;;;-1.33;77.35;99601.05;1594902;89;21182;-69
2020/12/02 11:03:40;;;;;;;49.70;26.27;;;;;;;-1.37;77.42;99601.26;1618166;88;21171;-65
2020/12/02 11:06:19;;;;;;;49.67;25.17;;;;;;;-1.40;77.65;99587.64;1618458;89;21191;-62
2020/12/02 11:13:09;;;;;;;47.33;21.90;;;;;;;-1.36;77.79;99576.79;1618526;89;21570;-65
2020/12/02 11:15:59;;;;;;;47.20;23.20;;;;;;;-1.36;77.79;99580.27;1618704;88;21121;-66
2020/12/02 11:18:54;;;;;;;38.13;18.50;;;;;;;-1.27;77.48;99580.61;1618988;89;21130;-65
2020/12/02 11:24:57;;;;;;;37.30;18.83;;;;;;;-1.48;77.11;99576.38;1618644;89;21137;-62
2020/12/02 11:27:24;;;;;;;46.73;23.40;;;;;;;-1.37;77.26;99573.84;1618455;89;21129;-66
2020/12/02 11:29:51;;;;;;;44.60;21.67;;;;;;;-1.39;77.55;99571.45;1618543;89;21184;-66
2020/12/02 11:32:45;;;;;;;42.20;20.80;;;;;;;-1.15;77.39;99569.32;1618696;88;21113;-66
2020/12/02 11:35:29;;;;;;;42.73;21.33;;;;;;;-0.99;77.19;99567.93;1618532;88;21245;-66
2020/12/02 11:41:46;;;;;;;46.37;21.83;;;;;;;-0.72;76.92;99563.14;1618723;89;21232;-66
2020/12/02 11:44:27;;;;;;;48.13;22.60;;;;;;;-0.65;76.63;99561.89;1618824;89;21156;-68
2020/12/02 11:47:20;;;;;;;38.83;19.12;;;;;;;-0.51;76.41;99560.94;1596495;89;21549;-67
2020/12/02 11:50:00;;;;;;;43.65;21.48;;;;;;;-0.55;76.47;99564.64;1618743;89;21137;-67
2020/12/02 11:52:35;;;;;;;43.10;20.23;;;;;;;-0.45;76.48;99561.80;1617660;89;21152;-67
2020/12/02 11:55:03;;;;;;;43.07;20.87;;;;;;;-0.41;76.36;99557.58;1618471;89;21566;-66
2020/12/02 11:57:30;;;;;;;37.30;19.03;;;;;;;-0.44;76.23;99558.87;1618626;89;21522;-68
2020/12/02 11:59:57;;;;;;;34.07;15.33;;;;;;;-0.36;76.15;99555.74;1619022;89;21560;-67
2020/12/02 12:02:35;;;;;;;42.37;20.50;;;;;;;-0.50;74.66;99553.23;1618751;89;21141;-68
2020/12/02 12:05:17;;;;;;;46.53;20.83;;;;;;;-0.38;75.96;99546.41;1618641;89;21145;-67
2020/12/02 12:08:08;;;;;;;36.40;16.53;;;;;;;-0.34;75.53;99544.31;1618334;89;21151;-65
2020/12/02 12:10:52;;;;;;;47.23;20.40;;;;;;;-0.51;75.16;99541.77;1618642;88;21111;-67
2020/12/02 12:13:27;;;;;;;42.20;20.37;;;;;;;-0.63;75.23;99541.64;1618620;89;21113;-64
2020/12/02 12:16:01;;;;;;;44.57;20.67;;;;;;;-0.62;75.33;99533.41;1617951;89;21324;-66
2020/12/02 12:18:41;;;;;;;;;;;;;;;-0.50;75.39;99529.25;1619350;88;21585;-66
2020/12/02 12:21:32;;;;;;;40.08;20.12;;;;;;;-0.78;74.06;99532.17;1618705;89;20256;-66
2020/12/02 12:24:06;;;;;;;44.30;20.93;;;;;;;-0.57;75.42;99525.99;1618682;89;21134;-67
2020/12/02 12:26:41;;;;;;;40.13;17.10;;;;;;;-0.47;75.30;99524.73;1618592;88;21125;-67
2020/12/02 12:29:09;;;;;;;42.37;20.73;;;;;;;-0.75;74.45;99523.70;1617464;89;21172;-68
2020/12/02 12:31:54;;;;;;;41.60;19.33;;;;;;;-0.58;75.25;99514.53;1618568;89;21122;-66
2020/12/02 12:34:44;;;;;;;46.47;19.53;;;;;;;-0.70;75.19;99510.41;1618581;89;21161;-67
2020/12/02 12:41:03;;;;;;;41.00;18.70;;;;;;;-0.92;75.56;99508.34;1618267;89;21125;-66
2020/12/02 12:43:45;;;;;;;42.40;21.47;;;;;;;-0.82;75.03;99502.58;1618144;89;21156;-67
2020/12/02 12:46:18;;;;;;;40.38;18.20;;;;;;;-0.75;75.18;99503.17;1591615;89;21176;-67
2020/12/02 12:48:45;;;;;;;43.43;21.23;;;;;;;-0.87;75.02;99498.55;1618152;89;21144;-66
2020/12/02 12:51:13;;;;;;;44.10;19.43;;;;;;;-0.81;75.54;99489.55;1618105;89;21724;-66
2020/12/02 12:57:27;;;;;;;43.63;19.63;;;;;;;-0.74;75.21;99482.15;1618270;89;21252;-68
2020/12/02 12:59:58;;;;;;;43.23;18.52;;;;;;;-0.83;75.37;99479.69;1618173;89;21599;-66
2020/12/02 13:02:28;;;;;;;42.17;19.33;;;;;;;-0.77;75.34;99476.00;1617003;89;21169;-67
2020/12/02 13:04:55;;;;;;;44.33;21.47;;;;;;;-0.75;75.36;99467.22;1618140;89;21569;-64
2020/12/02 13:07:30;;;;;;;36.43;16.60;;;;;;;-0.73;75.16;99475.77;1617972;89;21300;-66
2020/12/02 13:10:56;;;;;;;41.10;19.20;;;;;;;-0.92;74.85;99467.87;1618039;89;21573;-62